Impacts TAF Board INFO
FOR SITUATIONAL AWARENESS. NOT TO BE USED FOR FLIGHT PLANNING PURPOSES.
IDs:

KLGA - New York/La Guardia, NY, US

Issued at 1721 UTC 17 Dec 2017
Updated at 1920 UTC 17 Dec 2017
Potential Impact None Slight Moderate High
Time1851Z 17/20Z 17/21Z 17/22Z 17/23Z 18/00Z 18/01Z 18/02Z 18/03Z 18/04Z 18/05Z 18/06Z 18/07Z 18/08Z>>
Type OBS PRVL PRVL PRVL PRVL PRVL PRVL PRVL PRVL PRVL PRVL PRVL PRVL PRVL
VIS 10 >6 >6 >6 >6 >6 >6 >6 >6 >6 >6 >6 >6 >6
CIG 100 50 150 150 150 150 150 80 80 80 80 20 20 20
Cover OVC BKN OVC OVC OVC OVC OVC OVC OVC OVC OVC BKN BKN BKN
FltCat VFR VFR VFR VFR VFR VFR VFR VFR VFR VFR VFR MVFR MVFR MVFR
WX -- -- -- -- -- -- -- -- -- -- -- -- -- --
WDir 40 50 40 40 40 40 40 VRB VRB VRB VRB VRB VRB VRB
WSpd 5 5 5 5 5 5 5 4 4 4 4 4 4 4
WGst -- -- -- -- -- -- -- -- -- -- -- -- -- --

Raw TAF
KLGA 171721Z 1718/1824 05005KT P6SM BKN050
  FM172100 04005KT P6SM FEW045 OVC150
  FM180200 VRB04KT P6SM SCT025 OVC080
  FM180600 VRB04KT P6SM BKN020
  FM181400 33006KT P6SM SCT020 BKN080
  FM181700 27007KT P6SM FEW020 SCT250


Raw METAR
KLGA 171851Z 04005KT 10SM FEW015 FEW048 BKN100 OVC250 02/M05 A3024 RMK AO2 SLP239 T00221050 $
KLGA 171751Z 00000KT 10SM BKN048 BKN060 OVC100 02/M06 A3026 RMK AO2 SLP246 T00221056 10022 20006 58016 $
KLGA 171651Z 07004KT 10SM BKN046 BKN060 OVC100 02/M06 A3028 RMK AO2 SLP253 T00171061 $

METAR Board
Radar Display
Forecast Discussion

FOR SITUATIONAL AWARENESS. NOT TO BE USED FOR FLIGHT PLANNING PURPOSES.